Time;durP1;ratioP1;P1;durP2;ratioP2;P2;SDS_P1;SDS_P2;PMS_P1;PMS_P2;Temp;Humidity;BMP_temperature;BMP_pressure;BME280_temperature;BME280_humidity;BME280_pressure;Samples;Min_cycle;Max_cycle;Signal;HPM_P1;HPM_P2
2023/02/23 00:01:18;;;;;;;86.13;41.65;;;8.00;99.90;;;;;;5053993;28;20478;-63
2023/02/23 00:03:45;;;;;;;88.65;42.17;;;8.00;99.90;;;;;;5065854;28;20478;-63
2023/02/23 00:06:12;;;;;;;83.68;40.55;;;7.90;99.90;;;;;;5057803;28;20033;-62
2023/02/23 00:08:38;;;;;;;81.85;40.90;;;7.90;99.90;;;;;;5040764;28;20037;-63
2023/02/23 00:11:06;;;;;;;90.85;44.20;;;7.90;99.90;;;;;;5042364;28;20116;-63
2023/02/23 00:13:36;;;;;;;92.70;43.72;;;7.90;99.90;;;;;;5057975;28;20502;-63
2023/02/23 00:16:14;;;;;;;91.57;41.80;;;7.90;99.90;;;;;;5034262;28;20041;-62
2023/02/23 00:18:49;;;;;;;96.22;43.58;;;7.90;99.90;;;;;;5067128;28;20497;-62
2023/02/23 00:21:18;;;;;;;90.00;43.13;;;7.90;99.90;;;;;;5072438;28;20032;-62
2023/02/23 00:23:49;;;;;;;91.90;41.30;;;7.90;99.90;;;;;;5054841;28;20055;-64
2023/02/23 00:26:14;;;;;;;84.03;42.80;;;7.80;99.90;;;;;;5025213;28;20037;-62
2023/02/23 00:28:43;;;;;;;86.70;43.15;;;7.80;99.90;;;;;;5049912;28;20052;-63
2023/02/23 00:31:10;;;;;;;89.88;42.70;;;7.90;99.90;;;;;;5053228;28;20052;-62
2023/02/23 00:33:36;;;;;;;86.82;42.45;;;7.90;99.90;;;;;;5071971;28;20033;-63
2023/02/23 00:36:07;;;;;;;88.30;42.63;;;7.90;99.90;;;;;;5033950;28;20052;-63
2023/02/23 00:38:34;;;;;;;91.97;43.90;;;7.90;99.90;;;;;;5034092;28;20041;-62
2023/02/23 00:41:10;;;;;;;86.65;42.03;;;7.90;99.90;;;;;;5059679;28;20039;-63
2023/02/23 00:43:48;;;;;;;91.32;43.80;;;7.90;99.90;;;;;;5036508;28;20040;-64
2023/02/23 00:46:20;;;;;;;88.85;43.92;;;8.10;99.90;;;;;;5062369;28;20044;-62
2023/02/23 00:48:47;;;;;;;87.75;42.40;;;8.00;99.90;;;;;;5040763;28;20116;-62
2023/02/23 00:51:13;;;;;;;89.10;43.38;;;8.00;99.90;;;;;;5057397;28;20032;-63
2023/02/23 00:53:39;;;;;;;81.93;41.83;;;8.00;99.90;;;;;;5065362;28;20145;-63
2023/02/23 00:56:07;;;;;;;87.00;42.45;;;7.90;99.90;;;;;;5061945;28;20060;-62
2023/02/23 00:58:33;;;;;;;85.47;42.35;;;8.00;99.90;;;;;;5055337;28;20056;-63
2023/02/23 01:00:59;;;;;;;89.03;41.55;;;8.00;99.90;;;;;;5058627;28;20029;-63
2023/02/23 01:03:26;;;;;;;89.90;42.47;;;7.90;99.90;;;;;;5063314;28;20115;-63
2023/02/23 01:05:51;;;;;;;88.30;42.17;;;8.00;99.90;;;;;;5069020;28;20036;-62
2023/02/23 01:08:18;;;;;;;83.35;41.92;;;7.90;99.90;;;;;;5065977;28;20037;-63
2023/02/23 01:10:51;;;;;;;81.95;40.85;;;7.90;99.90;;;;;;5064564;28;20032;-62
2023/02/23 01:13:18;;;;;;;86.07;42.80;;;7.90;99.90;;;;;;5040780;28;20555;-64
2023/02/23 01:15:46;;;;;;;82.28;40.15;;;7.90;99.90;;;;;;5060192;28;20029;-63
2023/02/23 01:18:13;;;;;;;86.10;42.22;;;8.00;99.90;;;;;;5039322;28;20075;-63
2023/02/23 01:20:40;;;;;;;83.75;40.85;;;8.00;99.90;;;;;;5029781;28;20040;-64
2023/02/23 01:23:07;;;;;;;85.65;41.50;;;8.00;99.90;;;;;;5053949;28;20495;-63
2023/02/23 01:25:33;;;;;;;88.32;42.08;;;8.00;99.90;;;;;;5060728;28;20048;-62
2023/02/23 01:28:00;;;;;;;84.00;40.65;;;8.00;99.90;;;;;;5048963;28;20048;-63
2023/02/23 01:30:26;;;;;;;87.40;42.20;;;8.00;99.90;;;;;;5066655;28;20417;-63
2023/02/23 01:32:52;;;;;;;83.97;40.22;;;8.00;99.90;;;;;;5061354;28;20043;-63
2023/02/23 01:35:17;;;;;;;84.90;41.97;;;8.00;99.90;;;;;;5054854;28;20098;-63
2023/02/23 01:37:43;;;;;;;88.90;41.95;;;8.00;99.90;;;;;;5039275;28;20406;-64
2023/02/23 01:40:27;;;;;;;87.55;41.60;;;8.00;99.90;;;;;;5049233;28;20037;-63
2023/02/23 01:42:58;;;;;;;91.45;42.53;;;8.00;99.90;;;;;;5040553;28;20055;-62
2023/02/23 01:45:36;;;;;;;93.80;42.85;;;7.90;99.90;;;;;;5050404;28;20048;-61
2023/02/23 01:48:19;;;;;;;93.60;41.33;;;8.00;99.90;;;;;;5036065;28;20037;-62
2023/02/23 01:50:51;;;;;;;;;;;8.00;99.90;;;;;;5033977;28;20076;-62
2023/02/23 01:53:21;;;;;;;92.57;42.75;;;8.00;99.90;;;;;;5058833;28;19924;-62
2023/02/23 01:55:56;;;;;;;94.53;43.05;;;8.00;99.90;;;;;;5056932;28;20441;-62
2023/02/23 01:58:25;;;;;;;98.25;42.75;;;8.00;99.90;;;;;;5056904;28;20032;-65
2023/02/23 02:00:56;;;;;;;89.25;42.15;;;8.00;99.90;;;;;;5056891;28;20040;-61
2023/02/23 02:03:43;;;;;;;95.10;43.17;;;8.00;99.90;;;;;;5053316;28;20111;-64
2023/02/23 02:06:13;;;;;;;88.28;41.25;;;8.00;99.90;;;;;;5034562;28;20039;-62
2023/02/23 02:08:45;;;;;;;90.80;41.38;;;8.10;99.90;;;;;;5040099;28;20041;-62
2023/02/23 02:11:24;;;;;;;83.20;39.53;;;8.10;99.90;;;;;;5054910;28;20033;-62
2023/02/23 02:14:01;;;;;;;92.80;41.88;;;8.10;99.90;;;;;;5061108;28;20040;-61
2023/02/23 02:16:48;;;;;;;92.05;42.03;;;8.10;99.90;;;;;;5048221;28;20044;-62
2023/02/23 02:19:52;;;;;;;93.07;41.72;;;8.10;99.90;;;;;;5056930;28;20048;-61
2023/02/23 02:22:47;;;;;;;86.70;40.75;;;8.10;99.90;;;;;;5046751;28;20117;-62
2023/02/23 02:25:35;;;;;;;87.97;42.13;;;8.10;99.90;;;;;;5058755;28;20502;-62
2023/02/23 02:28:16;;;;;;;85.47;39.97;;;8.10;99.90;;;;;;5056735;28;20052;-65
2023/02/23 02:31:17;;;;;;;83.05;40.25;;;8.10;99.90;;;;;;5037309;28;20502;-62
2023/02/23 02:33:45;;;;;;;92.00;40.95;;;8.10;99.90;;;;;;5034398;28;20076;-62
2023/02/23 02:36:25;;;;;;;84.72;40.00;;;8.10;99.90;;;;;;5038665;28;20073;-62
2023/02/23 02:39:06;;;;;;;86.85;40.05;;;8.10;99.90;;;;;;5052247;28;20056;-63
2023/02/23 02:41:49;;;;;;;82.00;40.00;;;8.20;99.90;;;;;;5060784;28;20490;-62
2023/02/23 02:44:40;;;;;;;85.30;40.50;;;8.10;99.90;;;;;;5040508;28;20390;-64
2023/02/23 02:47:20;;;;;;;90.25;41.33;;;8.10;99.90;;;;;;5051896;28;20037;-61
2023/02/23 02:50:30;;;;;;;83.90;39.80;;;8.10;99.90;;;;;;5049802;28;20041;-61
2023/02/23 02:53:19;;;;;;;86.10;39.72;;;8.20;99.90;;;;;;5049981;28;20048;-64
2023/02/23 02:55:47;;;;;;;87.68;40.00;;;8.20;99.90;;;;;;5052597;28;20052;-61
2023/02/23 02:58:16;;;;;;;87.10;39.65;;;8.10;99.90;;;;;;5056799;28;20053;-62
2023/02/23 04:18:43;;;;;;;76.93;35.15;;;8.10;99.90;;;;;;5041197;28;20048;-63
2023/02/23 04:21:08;;;;;;;76.72;36.42;;;8.00;99.90;;;;;;5064236;28;20499;-63
2023/02/23 04:23:39;;;;;;;81.55;36.80;;;8.10;99.90;;;;;;5060920;28;20515;-66
2023/02/23 04:26:05;;;;;;;74.65;35.47;;;8.00;99.90;;;;;;5046609;28;20048;-63
2023/02/23 04:28:30;;;;;;;75.80;35.33;;;8.00;99.90;;;;;;5039359;28;20039;-63
2023/02/23 04:30:56;;;;;;;75.80;35.55;;;8.00;99.90;;;;;;5038638;28;20047;-63
2023/02/23 04:33:24;;;;;;;76.45;36.33;;;8.00;99.90;;;;;;5053337;28;20403;-63
2023/02/23 04:35:52;;;;;;;78.88;35.40;;;8.00;99.90;;;;;;5034955;28;20045;-63
2023/02/23 04:38:18;;;;;;;78.18;36.42;;;8.00;99.90;;;;;;5053597;28;20041;-63
2023/02/23 04:40:44;;;;;;;75.18;34.60;;;8.00;99.90;;;;;;5039004;28;20143;-63
2023/02/23 04:43:11;;;;;;;75.07;34.63;;;8.00;99.90;;;;;;5070906;28;20104;-63
2023/02/23 04:45:37;;;;;;;74.35;34.83;;;8.00;99.90;;;;;;5071270;28;20037;-63
2023/02/23 04:48:03;;;;;;;74.93;35.50;;;8.00;99.90;;;;;;5070820;28;20120;-63
2023/02/23 04:50:29;;;;;;;77.60;35.25;;;8.00;99.90;;;;;;5062743;28;20064;-64
2023/02/23 04:52:55;;;;;;;75.53;35.33;;;8.00;99.90;;;;;;5064927;28;20035;-64
2023/02/23 04:55:23;;;;;;;80.28;36.72;;;8.00;99.90;;;;;;5059230;28;20072;-63
2023/02/23 04:57:50;;;;;;;73.35;34.95;;;8.00;99.90;;;;;;5064040;28;20530;-64
2023/02/23 05:00:17;;;;;;;73.22;34.05;;;8.00;99.90;;;;;;5061793;28;20111;-63
2023/02/23 05:02:44;;;;;;;76.75;35.97;;;8.00;99.90;;;;;;5065944;28;20546;-63
2023/02/23 05:05:10;;;;;;;69.32;32.83;;;7.90;99.90;;;;;;5044908;28;20063;-63
2023/02/23 05:07:36;;;;;;;74.07;33.95;;;8.00;99.90;;;;;;5058385;28;20041;-63
2023/02/23 05:10:04;;;;;;;74.10;34.03;;;7.90;99.90;;;;;;5052114;28;20502;-63
2023/02/23 05:12:29;;;;;;;74.85;34.22;;;7.90;99.90;;;;;;5039382;28;20090;-63
2023/02/23 05:14:55;;;;;;;71.95;33.55;;;8.00;99.90;;;;;;5059498;28;20037;-63
2023/02/23 05:17:20;;;;;;;71.50;32.85;;;7.90;99.90;;;;;;5058538;28;20037;-63
2023/02/23 05:19:46;;;;;;;74.15;33.67;;;7.90;99.90;;;;;;5039776;28;20039;-63
2023/02/23 05:22:12;;;;;;;74.07;34.33;;;7.90;99.90;;;;;;5060185;28;20079;-63
2023/02/23 05:24:41;;;;;;;67.97;32.33;;;7.90;99.90;;;;;;5056874;28;20032;-63
2023/02/23 05:27:08;;;;;;;69.20;33.70;;;8.00;99.90;;;;;;5046104;28;20047;-62
2023/02/23 05:29:34;;;;;;;71.28;32.65;;;7.90;99.90;;;;;;5037469;28;20045;-64
2023/02/23 05:32:00;;;;;;;68.85;32.35;;;8.00;99.90;;;;;;5052207;28;20040;-64
2023/02/23 05:34:26;;;;;;;68.32;32.45;;;8.00;99.90;;;;;;5043098;28;20073;-63
2023/02/23 05:36:55;;;;;;;66.93;31.27;;;8.00;99.90;;;;;;5057644;28;20568;-63
2023/02/23 05:39:21;;;;;;;63.25;31.50;;;8.00;99.90;;;;;;5059293;28;20455;-63
2023/02/23 05:41:46;;;;;;;63.83;30.27;;;8.00;99.90;;;;;;5055441;28;20115;-63
2023/02/23 05:44:12;;;;;;;60.53;30.48;;;8.00;99.90;;;;;;5059904;28;20040;-63
2023/02/23 05:46:38;;;;;;;63.88;30.45;;;7.90;99.90;;;;;;5058609;28;20056;-64
2023/02/23 05:49:03;;;;;;;61.75;30.75;;;8.00;99.90;;;;;;5037871;28;20487;-63
2023/02/23 05:51:31;;;;;;;60.03;28.83;;;8.00;99.90;;;;;;5063401;28;20056;-63
2023/02/23 05:53:57;;;;;;;60.35;29.60;;;7.90;99.90;;;;;;5066097;28;20060;-63
2023/02/23 05:56:23;;;;;;;62.20;29.25;;;7.90;99.90;;;;;;5047645;28;20138;-63
2023/02/23 05:58:52;;;;;;;56.55;27.15;;;7.90;99.90;;;;;;5059780;28;20036;-63
2023/02/23 06:01:18;;;;;;;59.92;28.83;;;7.90;99.90;;;;;;5045785;28;20048;-63
2023/02/23 06:03:45;;;;;;;55.92;27.63;;;7.90;99.90;;;;;;5059955;28;20090;-63
2023/02/23 06:06:11;;;;;;;54.53;25.80;;;7.90;99.90;;;;;;5060262;28;20041;-63
2023/02/23 06:08:37;;;;;;;50.92;26.67;;;8.00;99.90;;;;;;5065842;28;20098;-63
2023/02/23 06:11:03;;;;;;;56.58;26.73;;;7.80;99.90;;;;;;5063278;28;20051;-63
2023/02/23 06:13:30;;;;;;;51.90;27.13;;;7.90;99.90;;;;;;5042870;28;20037;-63
2023/02/23 06:15:58;;;;;;;54.38;25.75;;;7.80;99.90;;;;;;5055295;28;20041;-63
2023/02/23 06:18:24;;;;;;;50.08;25.08;;;7.80;99.90;;;;;;5053838;28;20043;-63
2023/02/23 06:20:49;;;;;;;52.97;26.77;;;7.80;99.90;;;;;;5038171;28;20098;-64
2023/02/23 06:23:15;;;;;;;53.30;24.63;;;7.90;99.90;;;;;;5054407;28;20503;-63
2023/02/23 06:25:43;;;;;;;50.38;25.38;;;7.80;99.90;;;;;;5051691;28;20112;-63
2023/02/23 06:28:09;;;;;;;52.55;25.10;;;7.80;99.90;;;;;;5053447;28;20146;-63
2023/02/23 06:30:36;;;;;;;50.15;24.27;;;7.90;99.90;;;;;;5050032;28;20044;-63
2023/02/23 06:33:02;;;;;;;51.63;25.27;;;7.90;99.90;;;;;;5051207;28;20037;-63
2023/02/23 06:35:28;;;;;;;51.00;24.50;;;7.90;99.90;;;;;;5055373;28;20039;-63
2023/02/23 06:37:53;;;;;;;56.38;26.10;;;7.80;99.90;;;;;;5060309;28;20025;-64
2023/02/23 06:40:20;;;;;;;53.25;24.73;;;7.90;99.90;;;;;;5052559;28;20067;-63
2023/02/23 06:42:46;;;;;;;51.38;26.00;;;7.90;99.90;;;;;;5063898;28;20502;-63
2023/02/23 06:45:12;;;;;;;54.80;26.30;;;7.80;99.90;;;;;;5049516;28;20069;-63
2023/02/23 06:47:41;;;;;;;52.72;25.98;;;7.80;99.90;;;;;;5039898;28;20101;-63
2023/02/23 06:50:08;;;;;;;45.38;24.00;;;7.80;99.90;;;;;;5064156;28;20509;-64
2023/02/23 06:52:33;;;;;;;50.88;25.38;;;7.80;99.90;;;;;;5040752;28;20069;-63
2023/02/23 06:54:59;;;;;;;56.60;26.55;;;7.80;99.90;;;;;;5057637;28;20102;-63
2023/02/23 06:57:25;;;;;;;57.45;26.13;;;7.80;99.90;;;;;;5063450;28;20035;-63
2023/02/23 06:59:50;;;;;;;52.85;25.75;;;7.80;99.90;;;;;;5064949;28;20040;-63
2023/02/23 07:02:16;;;;;;;57.75;26.42;;;7.80;99.90;;;;;;5062681;28;20163;-63
2023/02/23 07:04:42;;;;;;;56.97;26.52;;;7.80;99.90;;;;;;5045784;28;20040;-63
2023/02/23 07:07:08;;;;;;;55.05;27.52;;;7.90;99.90;;;;;;5061639;28;20797;-63
2023/02/23 07:09:34;;;;;;;54.15;26.08;;;7.80;99.90;;;;;;5047278;28;20048;-63
2023/02/23 07:11:59;;;;;;;55.42;27.65;;;7.80;99.90;;;;;;5046172;28;20040;-63
2023/02/23 07:14:25;;;;;;;53.05;26.05;;;7.90;99.90;;;;;;5046745;28;20072;-63
2023/02/23 07:16:51;;;;;;;54.75;26.48;;;7.90;99.90;;;;;;5047025;28;20432;-63
2023/02/23 07:19:17;;;;;;;54.85;26.48;;;7.90;99.90;;;;;;5064928;28;20041;-63
2023/02/23 07:21:42;;;;;;;52.80;25.55;;;7.90;99.90;;;;;;5058320;28;20025;-63
2023/02/23 07:24:08;;;;;;;55.92;26.65;;;7.90;99.90;;;;;;5053270;28;20033;-63
2023/02/23 07:26:34;;;;;;;54.63;27.15;;;7.90;99.90;;;;;;5062088;28;20047;-63
2023/02/23 07:29:00;;;;;;;52.72;25.42;;;7.90;99.90;;;;;;5063387;28;20405;-63
2023/02/23 07:31:26;;;;;;;54.08;26.50;;;7.90;99.90;;;;;;5053168;28;20120;-63
2023/02/23 07:33:56;;;;;;;61.22;27.38;;;7.80;99.90;;;;;;5059916;28;20032;-63
2023/02/23 07:36:23;;;;;;;52.45;26.77;;;7.80;99.90;;;;;;5056061;28;20040;-63
2023/02/23 07:38:49;;;;;;;55.05;26.83;;;7.80;99.90;;;;;;5063617;28;20036;-63
2023/02/23 07:41:18;;;;;;;57.78;27.63;;;7.90;99.90;;;;;;5055254;28;20478;-63
2023/02/23 07:43:43;;;;;;;57.17;26.55;;;7.90;99.90;;;;;;5058474;28;20036;-62
2023/02/23 07:46:09;;;;;;;53.53;26.52;;;7.90;99.90;;;;;;5055236;28;20492;-63
2023/02/23 07:48:34;;;;;;;51.40;26.27;;;7.90;99.90;;;;;;5058992;28;20044;-63
2023/02/23 07:51:00;;;;;;;57.92;27.85;;;7.90;99.90;;;;;;5045457;28;20071;-63
2023/02/23 07:53:26;;;;;;;61.90;28.00;;;7.80;99.90;;;;;;5039654;28;20083;-63
2023/02/23 07:56:00;;;;;;;61.50;27.73;;;7.80;99.90;;;;;;5063871;28;20413;-63
2023/02/23 07:58:26;;;;;;;53.83;27.13;;;7.90;99.90;;;;;;5057815;28;20119;-63
2023/02/23 08:00:53;;;;;;;58.90;27.90;;;7.80;99.90;;;;;;5064720;28;20041;-63
2023/02/23 08:03:18;;;;;;;59.05;28.58;;;7.80;99.90;;;;;;5044697;28;20078;-63
2023/02/23 08:05:44;;;;;;;59.25;28.77;;;7.80;99.90;;;;;;5056557;28;20110;-63
2023/02/23 08:08:10;;;;;;;60.42;28.52;;;7.80;99.90;;;;;;5058696;28;20108;-63
2023/02/23 08:10:37;;;;;;;59.80;27.98;;;7.80;99.90;;;;;;5066033;28;20119;-63
2023/02/23 08:13:03;;;;;;;58.55;28.85;;;7.90;99.90;;;;;;5043871;28;20040;-63
2023/02/23 08:15:28;;;;;;;62.88;27.85;;;7.80;99.90;;;;;;5066108;28;20111;-63
2023/02/23 08:17:54;;;;;;;59.50;27.80;;;7.90;99.90;;;;;;5068617;28;20029;-63
2023/02/23 08:20:20;;;;;;;62.30;29.15;;;7.90;99.90;;;;;;5069968;28;20371;-63
2023/02/23 08:22:46;;;;;;;57.42;27.83;;;7.90;99.90;;;;;;5030505;28;20423;-63
2023/02/23 08:25:11;;;;;;;61.25;28.85;;;7.90;99.90;;;;;;5059549;28;20036;-63
2023/02/23 08:27:37;;;;;;;63.03;27.98;;;7.90;99.90;;;;;;5052523;28;20048;-63
2023/02/23 08:30:04;;;;;;;55.85;27.52;;;7.90;99.90;;;;;;5041340;28;20040;-63
2023/02/23 08:32:34;;;;;;;61.88;28.85;;;7.90;99.90;;;;;;5055862;28;20045;-63
2023/02/23 08:35:04;;;;;;;60.33;27.50;;;8.00;99.90;;;;;;5055150;28;20079;-63
2023/02/23 08:37:29;;;;;;;58.88;28.25;;;8.00;99.90;;;;;;5044559;28;20525;-63
2023/02/23 08:39:56;;;;;;;67.03;29.80;;;8.00;99.90;;;;;;5069873;28;20032;-63
2023/02/23 08:42:22;;;;;;;59.97;28.92;;;7.90;99.90;;;;;;5072425;28;20518;-63
2023/02/23 08:44:50;;;;;;;59.45;28.10;;;7.90;99.90;;;;;;5071348;28;20040;-62
2023/02/23 08:47:22;;;;;;;65.28;29.05;;;8.00;99.90;;;;;;5052598;28;20120;-63
2023/02/23 08:49:53;;;;;;;61.85;28.40;;;8.00;99.90;;;;;;5055454;28;20045;-63
2023/02/23 08:52:19;;;;;;;63.17;29.25;;;8.00;99.90;;;;;;5054106;28;20103;-62
2023/02/23 08:54:45;;;;;;;59.80;27.75;;;8.00;99.90;;;;;;5067983;28;20115;-62
2023/02/23 08:57:11;;;;;;;64.97;29.48;;;8.00;99.90;;;;;;5069240;28;20430;-62
2023/02/23 08:59:38;;;;;;;60.20;28.50;;;8.00;99.90;;;;;;5052170;28;20098;-63
2023/02/23 09:02:04;;;;;;;64.03;30.10;;;8.10;99.90;;;;;;5069560;28;20390;-63
2023/02/23 09:04:36;;;;;;;67.32;29.15;;;8.10;99.90;;;;;;5051915;28;20768;-63
2023/02/23 09:07:02;;;;;;;60.40;28.90;;;8.10;99.90;;;;;;5036239;28;20452;-62
2023/02/23 09:09:28;;;;;;;59.08;29.13;;;8.10;99.90;;;;;;5061827;28;20040;-62
2023/02/23 09:11:53;;;;;;;61.90;29.30;;;8.20;99.90;;;;;;5066790;28;20665;-62
2023/02/23 09:14:20;;;;;;;61.95;28.58;;;8.30;99.90;;;;;;5066154;28;20044;-63
2023/02/23 09:16:46;;;;;;;59.17;27.80;;;8.30;99.90;;;;;;5051206;28;20032;-63
2023/02/23 09:19:13;;;;;;;62.40;28.85;;;8.30;99.90;;;;;;5066409;28;20036;-62
2023/02/23 09:21:38;;;;;;;57.55;28.27;;;8.40;99.90;;;;;;5043581;28;20073;-63
2023/02/23 09:24:05;;;;;;;58.58;28.45;;;8.40;99.90;;;;;;5062232;28;20624;-62
2023/02/23 09:26:32;;;;;;;59.35;27.55;;;8.50;99.90;;;;;;5066756;28;20498;-63
2023/02/23 09:28:59;;;;;;;62.78;27.88;;;8.50;99.90;;;;;;5049376;28;20040;-62
2023/02/23 09:31:26;;;;;;;56.85;27.17;;;8.60;99.90;;;;;;5068745;28;20036;-62
2023/02/23 09:33:53;;;;;;;58.70;26.73;;;8.60;99.90;;;;;;5048357;28;20041;-63
2023/02/23 09:36:22;;;;;;;59.38;29.13;;;8.60;99.90;;;;;;5053481;28;20070;-63
2023/02/23 09:38:53;;;;;;;62.40;27.65;;;8.60;99.90;;;;;;5059591;28;20110;-63
2023/02/23 09:41:28;;;;;;;54.72;26.70;;;8.50;99.90;;;;;;5065538;28;20043;-63
2023/02/23 09:44:12;;;;;;;56.20;26.85;;;8.50;99.90;;;;;;5050737;28;20037;-63
2023/02/23 09:46:50;;;;;;;59.85;28.63;;;8.50;99.90;;;;;;5051747;28;20040;-63
2023/02/23 09:49:19;;;;;;;56.50;28.10;;;8.60;99.90;;;;;;5057891;28;20039;-63
2023/02/23 09:51:54;;;;;;;62.55;28.38;;;8.50;99.90;;;;;;5058003;28;20032;-63
2023/02/23 09:54:23;;;;;;;57.50;28.05;;;8.60;99.90;;;;;;5059137;28;20083;-63
2023/02/23 09:56:51;;;;;;;53.33;27.13;;;8.50;99.90;;;;;;5059178;28;20037;-62
2023/02/23 09:59:20;;;;;;;58.28;27.52;;;8.50;99.90;;;;;;5061262;28;20037;-63
2023/02/23 10:01:45;;;;;;;55.03;28.60;;;8.50;99.90;;;;;;5066017;28;20582;-63
2023/02/23 10:04:19;;;;;;;54.70;27.60;;;8.50;99.90;;;;;;5052215;28;20052;-63
2023/02/23 10:06:54;;;;;;;51.72;26.73;;;8.50;99.90;;;;;;5066153;28;20040;-63
2023/02/23 10:09:50;;;;;;;56.33;26.20;;;8.50;99.90;;;;;;5064842;28;20074;-62
2023/02/23 10:12:32;;;;;;;59.28;26.42;;;8.50;99.90;;;;;;5067385;28;20037;-63
2023/02/23 10:15:32;;;;;;;57.97;26.65;;;8.50;99.90;;;;;;5064684;28;20645;-62
2023/02/23 10:18:35;;;;;;;53.80;25.95;;;8.50;99.90;;;;;;5060650;28;20074;-63
2023/02/23 10:21:13;;;;;;;60.15;27.10;;;8.50;99.90;;;;;;5065331;28;20111;-63
2023/02/23 10:23:48;;;;;;;57.20;24.90;;;8.50;99.90;;;;;;5063172;28;20032;-63
2023/02/23 10:26:21;;;;;;;51.88;24.20;;;8.50;99.90;;;;;;5062978;28;20135;-63
2023/02/23 10:28:47;;;;;;;54.03;24.40;;;8.50;99.90;;;;;;5066800;28;20047;-64
2023/02/23 10:31:25;;;;;;;56.13;23.83;;;8.50;99.90;;;;;;5065311;28;21555;-62
2023/02/23 10:33:54;;;;;;;54.17;23.42;;;8.50;99.90;;;;;;5065632;28;20035;-66
2023/02/23 10:36:36;;;;;;;53.47;23.15;;;8.40;99.90;;;;;;5062908;28;20037;-62
2023/02/23 10:39:05;;;;;;;49.70;22.23;;;8.50;99.90;;;;;;5048989;28;20119;-62
2023/02/23 10:41:31;;;;;;;48.92;22.33;;;8.50;99.90;;;;;;5048501;28;20047;-64
2023/02/23 10:43:57;;;;;;;51.63;22.90;;;8.40;99.90;;;;;;5045382;28;20040;-63
2023/02/23 10:46:39;;;;;;;48.85;23.27;;;8.50;99.90;;;;;;5037364;28;20033;-65
2023/02/23 10:49:06;;;;;;;46.35;21.52;;;8.50;99.90;;;;;;5055908;28;20039;-62
2023/02/23 10:51:36;;;;;;;46.60;21.52;;;8.60;99.90;;;;;;5058503;28;20475;-62
2023/02/23 10:54:42;;;;;;;44.53;21.27;;;8.70;99.90;;;;;;5037266;28;20045;-62
2023/02/23 10:57:12;;;;;;;50.45;22.50;;;8.80;99.90;;;;;;5040428;28;20040;-62
2023/02/23 10:59:42;;;;;;;47.63;21.80;;;8.80;99.90;;;;;;5053946;28;20033;-62
2023/02/23 11:02:21;;;;;;;44.78;20.77;;;8.90;99.90;;;;;;5056978;28;20052;-63
2023/02/23 11:04:55;;;;;;;43.90;20.77;;;9.00;99.90;;;;;;5036025;28;20048;-64
2023/02/23 11:07:25;;;;;;;43.20;19.90;;;9.00;99.90;;;;;;5053255;28;20043;-64
2023/02/23 11:09:51;;;;;;;38.15;18.83;;;9.10;99.90;;;;;;5060563;28;20178;-64
2023/02/23 11:12:20;;;;;;;39.88;18.13;;;9.10;99.90;;;;;;5059058;28;20166;-64
2023/02/23 11:14:47;;;;;;;31.85;15.70;;;9.10;99.90;;;;;;5038013;28;20048;-67
2023/02/23 11:17:35;;;;;;;31.60;15.38;;;9.10;99.90;;;;;;5064639;28;20530;-63
2023/02/23 11:20:05;;;;;;;27.77;14.02;;;9.10;99.90;;;;;;5052853;28;20068;-64
2023/02/23 11:22:35;;;;;;;32.00;15.38;;;9.10;99.90;;;;;;5048303;28;20383;-62
2023/02/23 11:25:11;;;;;;;28.48;14.05;;;9.10;99.90;;;;;;5046648;28;20075;-64
2023/02/23 11:27:37;;;;;;;30.60;14.93;;;9.20;99.90;;;;;;5044381;28;20040;-64
2023/02/23 11:30:05;;;;;;;30.83;14.75;;;9.10;99.90;;;;;;5055199;28;20328;-63
2023/02/23 11:32:37;;;;;;;34.88;15.93;;;9.20;99.90;;;;;;5049458;28;20043;-63
2023/02/23 11:35:21;;;;;;;29.83;14.90;;;9.20;99.90;;;;;;5035470;28;20080;-64
2023/02/23 11:37:48;;;;;;;34.78;15.70;;;9.20;99.90;;;;;;5068012;28;20395;-61
2023/02/23 11:40:18;;;;;;;33.75;17.13;;;9.20;99.90;;;;;;5041398;28;20041;-64
2023/02/23 11:43:16;;;;;;;36.08;17.00;;;9.20;99.90;;;;;;5068810;28;20033;-64
2023/02/23 11:45:50;;;;;;;36.65;17.38;;;9.20;99.90;;;;;;5060323;28;20048;-64
2023/02/23 11:48:25;;;;;;;37.70;18.67;;;9.10;99.90;;;;;;5057614;28;20047;-64
2023/02/23 11:50:52;;;;;;;37.92;18.38;;;9.10;99.90;;;;;;5038350;28;20032;-62
2023/02/23 11:53:27;;;;;;;39.53;17.00;;;9.10;99.90;;;;;;5048113;28;20036;-64
2023/02/23 11:55:54;;;;;;;35.75;18.10;;;9.10;99.90;;;;;;5045618;28;20051;-64
2023/02/23 11:58:41;;;;;;;35.17;17.23;;;9.10;99.90;;;;;;5061029;28;20348;-64
2023/02/23 12:01:15;;;;;;;41.83;18.55;;;9.10;99.90;;;;;;5053304;28;20111;-64
2023/02/23 12:03:53;;;;;;;37.63;17.55;;;9.10;99.90;;;;;;5065113;28;20082;-64
2023/02/23 12:06:29;;;;;;;37.55;17.88;;;9.20;99.90;;;;;;5036958;28;20037;-62
2023/02/23 12:09:01;;;;;;;68.15;20.38;;;9.20;99.90;;;;;;5034428;28;20048;-64
2023/02/23 12:11:31;;;;;;;42.58;18.30;;;9.20;99.90;;;;;;5035279;28;20032;-64
2023/02/23 12:14:11;;;;;;;48.72;22.20;;;9.20;99.90;;;;;;5049721;28;20487;-64
2023/02/23 12:16:47;;;;;;;52.17;26.15;;;9.10;99.90;;;;;;5050680;28;20254;-64
2023/02/23 12:19:23;;;;;;;71.57;41.00;;;9.10;99.90;;;;;;5059920;28;20041;-64
2023/02/23 12:21:54;;;;;;;58.15;29.63;;;9.10;99.90;;;;;;5062327;28;20074;-63
2023/02/23 12:24:38;;;;;;;52.97;27.30;;;9.10;99.90;;;;;;5065498;28;20032;-64
2023/02/23 12:27:14;;;;;;;55.83;31.02;;;9.10;99.90;;;;;;5065664;28;20124;-63
2023/02/23 12:30:03;;;;;;;47.83;26.00;;;9.00;99.90;;;;;;5046414;28;20075;-61
2023/02/23 12:33:14;;;;;;;45.72;22.00;;;9.00;99.90;;;;;;5063515;28;20044;-63
2023/02/23 12:36:04;;;;;;;49.35;22.25;;;9.10;99.90;;;;;;5057089;28;20373;-64
2023/02/23 12:38:54;;;;;;;52.08;23.25;;;9.10;99.90;;;;;;5066330;28;20041;-65
2023/02/23 12:41:40;;;;;;;51.83;22.98;;;9.10;99.90;;;;;;5065171;28;20040;-64
2023/02/23 12:44:29;;;;;;;50.38;22.80;;;9.10;99.90;;;;;;5061727;28;20071;-64
2023/02/23 12:47:02;;;;;;;50.30;22.08;;;9.10;99.90;;;;;;5050480;28;20482;-63
2023/02/23 12:49:43;;;;;;;51.70;24.65;;;9.10;99.90;;;;;;5061481;28;20433;-64
2023/02/23 12:52:09;;;;;;;54.13;23.30;;;9.10;99.90;;;;;;5069121;28;20406;-62
2023/02/23 12:54:36;;;;;;;46.25;22.02;;;9.10;99.90;;;;;;5062966;28;20495;-63
2023/02/23 12:57:22;;;;;;;50.35;21.52;;;9.00;99.90;;;;;;5063005;28;20028;-64
2023/02/23 12:59:54;;;;;;;46.05;21.33;;;9.00;99.90;;;;;;5045276;28;20123;-64
2023/02/23 13:02:35;;;;;;;53.80;22.15;;;9.00;99.90;;;;;;5060339;28;20033;-63
2023/02/23 13:05:14;;;;;;;52.92;22.17;;;9.00;99.90;;;;;;5046046;28;20131;-64
2023/02/23 13:08:04;;;;;;;54.72;23.35;;;9.00;99.90;;;;;;5048871;28;20127;-63
2023/02/23 13:10:48;;;;;;;62.90;24.30;;;9.00;99.90;;;;;;5055907;28;20072;-64
2023/02/23 13:13:20;;;;;;;56.72;22.02;;;9.00;99.90;;;;;;5040270;28;20084;-64
2023/02/23 13:16:13;;;;;;;57.55;22.23;;;9.00;99.90;;;;;;5059832;28;20040;-63
2023/02/23 13:18:48;;;;;;;61.90;27.33;;;9.10;99.90;;;;;;5059438;28;20391;-65
2023/02/23 13:21:33;;;;;;;52.10;22.75;;;9.10;99.90;;;;;;5048552;28;20074;-64
2023/02/23 13:24:18;;;;;;;54.03;22.10;;;9.10;99.90;;;;;;5042955;28;20086;-64
2023/02/23 13:27:16;;;;;;;57.22;22.35;;;9.20;99.90;;;;;;5038303;28;20044;-63
2023/02/23 13:29:45;;;;;;;55.75;21.88;;;9.30;99.90;;;;;;5059439;28;20039;-64
2023/02/23 13:32:16;;;;;;;57.50;21.80;;;9.30;99.90;;;;;;5034601;28;20107;-63
2023/02/23 13:35:04;;;;;;;52.33;21.55;;;9.40;99.90;;;;;;5038434;28;20041;-63
2023/02/23 13:37:39;;;;;;;59.47;21.58;;;9.40;99.90;;;;;;5020446;28;20553;-63
2023/02/23 13:40:15;;;;;;;55.75;22.80;;;9.40;99.90;;;;;;5032767;28;20053;-63
2023/02/23 13:42:44;;;;;;;58.60;21.83;;;9.40;99.90;;;;;;5064559;28;20564;-63
2023/02/23 13:45:26;;;;;;;47.53;20.00;;;9.40;99.90;;;;;;5061043;28;20139;-63
2023/02/23 13:47:55;;;;;;;47.28;20.02;;;9.40;99.90;;;;;;5058769;28;20036;-63
2023/02/23 13:50:46;;;;;;;50.65;19.02;;;9.40;99.90;;;;;;5069075;28;20059;-63
2023/02/23 13:53:41;;;;;;;53.38;19.98;;;9.40;99.90;;;;;;5069791;28;20451;-63
2023/02/23 13:56:08;;;;;;;52.15;20.25;;;9.40;99.90;;;;;;5044344;28;20036;-63
2023/02/23 13:58:34;;;;;;;53.95;22.35;;;9.40;99.90;;;;;;5056955;28;20410;-63
2023/02/23 14:01:15;;;;;;;56.58;26.42;;;9.50;99.90;;;;;;5044124;28;20043;-63
2023/02/23 14:03:53;;;;;;;50.53;22.05;;;9.60;99.90;;;;;;5060254;28;20025;-63
2023/02/23 14:06:21;;;;;;;55.58;21.40;;;9.50;99.90;;;;;;5060408;28;20398;-64
2023/02/23 14:08:55;;;;;;;55.08;24.55;;;9.50;99.90;;;;;;5062901;28;20036;-63
2023/02/23 14:11:43;;;;;;;53.75;21.70;;;9.50;99.90;;;;;;5043540;28;20082;-63
2023/02/23 14:14:31;;;;;;;50.25;22.05;;;9.50;99.90;;;;;;5013954;28;20048;-63
2023/02/23 14:17:16;;;;;;;53.08;20.45;;;9.50;99.90;;;;;;5066285;28;20036;-63
2023/02/23 14:20:12;;;;;;;49.58;20.50;;;9.50;99.90;;;;;;5048637;28;20490;-63